Time;durP1;ratioP1;P1;durP2;ratioP2;P2;SDS_P1;SDS_P2;PMS_P1;PMS_P2;Temp;Humidity;BMP_temperature;BMP_pressure;BME280_temperature;BME280_humidity;BME280_pressure;Samples;Min_cycle;Max_cycle;Signal;HPM_P1;HPM_P2
2023/06/04 00:00:17;;;;;;;;;;;;;;;11.75;74.97;99512.84;4290916;33;34220;-90
2023/06/04 00:02:45;;;;;;;;;;;;;;;11.90;72.77;99519.63;4277936;33;34304;-91
2023/06/04 00:05:13;;;;;;;;;;;;;;;12.18;71.28;99514.03;4278168;33;35111;-88
2023/06/04 00:07:40;;;;;;;;;;;;;;;11.52;73.39;99513.13;4291006;33;33053;-89
2023/06/04 00:10:09;;;;;;;;;;;;;;;12.27;69.81;99516.50;4266006;33;32884;-89
2023/06/04 00:12:37;;;;;;;;;;;;;;;11.63;73.50;99513.00;4278100;33;35297;-90
2023/06/04 00:15:05;;;;;;;;;;;;;;;11.09;74.45;99520.53;4277898;33;34228;-90
2023/06/04 00:17:33;;;;;;;;;;;;;;;11.48;73.26;99515.78;4277743;33;32290;-89
2023/06/04 00:20:01;;;;;;;;;;;;;;;11.04;76.33;99517.97;4266287;33;34568;-90
2023/06/04 00:22:28;;;;;;;;;;;;;;;11.71;73.16;99518.09;4278062;33;35968;-89
2023/06/04 00:24:56;;;;;;;;;;;;;;;12.18;70.40;99508.81;4291009;33;35019;-90
2023/06/04 00:27:24;;;;;;;;;;;;;;;11.23;75.53;99508.22;4277696;33;33490;-90
2023/06/04 00:29:52;;;;;;;;;;;;;;;10.84;78.28;99506.91;4290734;33;34925;-90
2023/06/04 00:32:20;;;;;;;;;;;;;;;11.06;76.59;99500.56;4291066;33;35341;-91
2023/06/04 00:34:52;;;;;;;;;;;;;;;11.31;74.50;99503.81;4265505;33;34878;-91
2023/06/04 00:37:21;;;;;;;;;;;;;;;11.46;75.85;99502.75;4266061;33;32241;-90
2023/06/04 00:39:49;;;;;;;;;;;;;;;11.61;74.23;99500.84;4277827;33;34061;-90
2023/06/04 00:42:17;;;;;;;;;;;;;;;11.42;75.16;99508.91;4278163;33;35943;-90
2023/06/04 00:44:45;;;;;;;;;;;;;;;11.92;72.91;99502.19;4290986;33;34664;-90
2023/06/04 00:47:13;;;;;;;;;;;;;;;11.72;74.93;99506.81;4277956;33;33445;-90
2023/06/04 00:49:41;;;;;;;;;;;;;;;11.25;74.93;99505.63;4290774;33;34808;-89
2023/06/04 00:52:10;;;;;;;;;;;;;;;11.38;74.72;99507.19;4290703;33;35225;-91
2023/06/04 00:54:37;;;;;;;;;;;;;;;11.10;76.35;99510.12;4290728;33;34169;-90
2023/06/04 00:57:06;;;;;;;;;;;;;;;11.24;74.82;99511.69;4290835;33;33697;-90
2023/06/04 00:59:36;;;;;;;;;;;;;;;11.97;71.20;99507.38;4278049;33;33708;-90
2023/06/04 01:02:14;;;;;;;;;;;;;;;11.75;71.57;99506.75;4277794;33;35052;-90
2023/06/04 01:04:44;;;;;;;;;;;;;;;11.00;74.27;99506.72;4290832;33;35099;-89
2023/06/04 01:07:13;;;;;;;;;;;;;;;11.21;73.59;99499.56;4265903;33;32123;-89
2023/06/04 01:09:41;;;;;;;;;;;;;;;10.76;79.04;99502.59;4277673;33;34632;-90
2023/06/04 01:12:10;;;;;;;;;;;;;;;11.12;76.82;99491.84;4290675;33;34939;-92
2023/06/04 01:14:37;;;;;;;;;;;;;;;11.06;75.80;99492.75;4290646;33;34327;-89
2023/06/04 01:17:15;;;;;;;;;;;;;;;11.42;73.77;99495.84;4277635;33;32634;-90
2023/06/04 01:19:51;;;;;;;;;;;;;;;11.75;74.10;99502.41;4266072;33;32489;-89
2023/06/04 01:22:24;;;;;;;;;;;;;;;10.81;79.19;99515.59;4290612;33;34934;-92
2023/06/04 01:24:55;;;;;;;;;;;;;;;11.32;78.06;99507.28;4290593;33;34641;-91
2023/06/04 01:27:23;;;;;;;;;;;;;;;11.32;77.43;99504.66;4290652;33;33303;-90
2023/06/04 01:29:51;;;;;;;;;;;;;;;11.61;75.66;99501.69;4290612;33;33751;-89
2023/06/04 01:32:19;;;;;;;;;;;;;;;11.90;73.30;99514.41;4277749;33;35292;-89
2023/06/04 01:34:47;;;;;;;;;;;;;;;11.06;77.33;99512.75;4277623;33;35406;-90
2023/06/04 01:37:16;;;;;;;;;;;;;;;11.27;76.61;99511.66;4277583;33;33099;-90
2023/06/04 01:39:45;;;;;;;;;;;;;;;11.90;73.14;99508.31;4277383;33;32908;-89
2023/06/04 01:42:12;;;;;;;;;;;;;;;11.31;73.84;99508.13;4265620;33;33758;-89
2023/06/04 01:44:41;;;;;;;;;;;;;;;11.02;75.84;99508.47;4290510;33;34472;-89
2023/06/04 01:47:09;;;;;;;;;;;;;;;11.18;73.93;99504.81;4277651;33;34128;-89
2023/06/04 01:49:37;;;;;;;;;;;;;;;11.10;75.04;99510.12;4290338;33;34623;-90
2023/06/04 01:52:05;;;;;;;;;;;;;;;10.79;75.66;99510.38;4277380;33;34948;-91
2023/06/04 01:54:33;;;;;;;;;;;;;;;10.59;78.62;99504.50;4290289;33;35340;-90
2023/06/04 01:57:03;;;;;;;;;;;;;;;10.49;79.94;99505.44;4277081;33;32152;-89
2023/06/04 01:59:31;;;;;;;;;;;;;;;10.66;79.32;99506.19;4277643;33;34089;-90
2023/06/04 02:02:02;;;;;;;;;;;;;;;10.44;80.01;99505.47;4277680;33;35046;-90
2023/06/04 02:04:30;;;;;;;;;;;;;;;10.91;77.52;99508.56;4290193;33;34415;-90
2023/06/04 02:06:59;;;;;;;;;;;;;;;10.50;79.02;99502.84;4277309;33;33412;-89
2023/06/04 02:09:27;;;;;;;;;;;;;;;11.04;78.32;99504.09;4290132;33;33947;-90
2023/06/04 02:11:55;;;;;;;;;;;;;;;11.05;78.99;99511.91;4290149;33;35363;-89
2023/06/04 02:14:23;;;;;;;;;;;;;;;10.98;79.34;99521.50;4277274;33;35447;-90
2023/06/04 02:16:51;;;;;;;;;;;;;;;11.87;74.83;99514.41;4290188;33;33105;-90
2023/06/04 02:19:18;;;;;;;;;;;;;;;11.32;77.38;99509.88;4290093;33;34095;-89
2023/06/04 02:21:46;;;;;;;;;;;;;;;11.79;73.38;99512.78;4265146;33;34271;-90
2023/06/04 02:24:14;;;;;;;;;;;;;;;10.67;77.25;99514.84;4277084;33;34607;-91
2023/06/04 02:26:42;;;;;;;;;;;;;;;11.06;77.28;99508.41;4276989;33;32474;-91
2023/06/04 02:29:09;;;;;;;;;;;;;;;11.33;72.91;99508.97;4265364;33;33722;-89
2023/06/04 02:31:37;;;;;;;;;;;;;;;10.63;78.51;99519.22;4265145;33;34476;-90
2023/06/04 02:34:05;;;;;;;;;;;;;;;10.77;78.42;99519.97;4289826;33;35498;-90
2023/06/04 02:36:33;;;;;;;;;;;;;;;10.77;77.38;99516.50;4276955;33;33427;-90
2023/06/04 02:39:02;;;;;;;;;;;;;;;10.53;76.25;99508.00;4276916;33;34089;-90
2023/06/04 02:41:30;;;;;;;;;;;;;;;10.97;76.61;99503.28;4289751;33;35262;-91
2023/06/04 02:43:57;;;;;;;;;;;;;;;11.00;77.15;99503.25;4289621;33;34348;-89
2023/06/04 02:46:26;;;;;;;;;;;;;;;11.37;75.40;99505.47;4276837;33;34077;-89
2023/06/04 02:48:54;;;;;;;;;;;;;;;11.44;74.67;99512.34;4277137;33;34653;-91
2023/06/04 02:51:22;;;;;;;;;;;;;;;10.89;76.60;99518.09;4290241;33;36045;-90
2023/06/04 02:53:50;;;;;;;;;;;;;;;11.39;75.96;99512.38;4291524;33;34554;-89
2023/06/04 02:56:20;;;;;;;;;;;;;;;11.38;75.99;99515.00;4278251;33;32080;-88
2023/06/04 02:58:55;;;;;;;;;;;;;;;11.62;74.89;99513.00;4291063;33;34566;-90
2023/06/04 03:01:23;;;;;;;;;;;;;;;10.65;79.40;99504.44;4278919;33;36013;-90
2023/06/04 03:03:52;;;;;;;;;;;;;;;10.39;80.27;99509.84;4291635;33;34338;-91
2023/06/04 03:06:20;;;;;;;;;;;;;;;11.28;76.82;99516.00;4291356;33;33302;-90
2023/06/04 03:08:49;;;;;;;;;;;;;;;10.92;78.38;99515.47;4291528;33;34593;-89
2023/06/04 03:11:19;;;;;;;;;;;;;;;10.75;79.25;99519.13;4278582;33;35379;-89
2023/06/04 03:13:47;;;;;;;;;;;;;;;10.52;80.48;99521.91;4278429;33;34261;-90
2023/06/04 03:16:16;;;;;;;;;;;;;;;10.65;81.34;99521.81;4278616;33;33019;-91
2023/06/04 03:18:44;;;;;;;;;;;;;;;11.27;77.95;99515.13;4278389;33;33755;-89
2023/06/04 03:21:13;;;;;;;;;;;;;;;11.30;77.88;99517.72;4266734;33;35276;-89
2023/06/04 03:23:41;;;;;;;;;;;;;;;11.08;77.51;99511.88;4278610;33;33491;-90
2023/06/04 03:26:12;;;;;;;;;;;;;;;10.96;78.55;99512.00;4278375;33;32986;-88
2023/06/04 03:28:40;;;;;;;;;;;;;;;11.39;78.16;99512.38;4291342;33;33977;-90
2023/06/04 03:31:09;;;;;;;;;;;;;;;11.64;76.59;99516.47;4278689;33;34936;-90
2023/06/04 03:33:37;;;;;;;;;;;;;;;11.00;80.19;99514.53;4278341;33;34540;-89
2023/06/04 03:36:05;;;;;;;;;;;;;;;10.94;81.51;99524.16;4291181;33;34146;-91
2023/06/04 03:38:35;;;;;;;;;;;;;;;10.77;83.25;99532.97;4291527;33;34018;-91
2023/06/04 03:41:03;;;;;;;;;;;;;;;11.35;80.76;99525.50;4291420;33;35270;-90
2023/06/04 03:43:31;;;;;;;;;;;;;;;11.17;82.41;99532.62;4278274;33;35407;-90
2023/06/04 03:46:00;;;;;;;;;;;;;;;11.70;80.75;99524.19;4291506;33;33389;-90
2023/06/04 03:48:28;;;;;;;;;;;;;;;11.71;78.89;99518.97;4291152;33;33815;-91
2023/06/04 03:50:55;;;;;;;;;;;;;;;12.08;71.25;99534.16;4266239;33;34908;-90
2023/06/04 03:53:24;;;;;;;;;;;;;;;12.04;71.44;99529.88;4266318;33;33627;-90
2023/06/04 03:55:52;;;;;;;;;;;;;;;12.01;70.94;99536.91;4277798;33;31884;-90
2023/06/04 03:58:21;;;;;;;;;;;;;;;12.40;70.26;99534.59;4278335;33;34094;-91
2023/06/04 04:00:50;;;;;;;;;;;;;;;12.49;70.06;99534.44;4278727;33;34980;-91
2023/06/04 04:03:19;;;;;;;;;;;;;;;12.31;69.56;99540.81;4290408;33;34642;-91
2023/06/04 04:05:47;;;;;;;;;;;;;;;12.71;66.67;99548.06;4277942;33;32824;-91
2023/06/04 04:08:16;;;;;;;;;;;;;;;13.19;63.86;99542.84;4278035;33;33053;-90
2023/06/04 04:10:44;;;;;;;;;;;;;;;12.76;72.64;99550.56;4290973;33;35218;-89
2023/06/04 04:13:12;;;;;;;;;;;;;;;12.98;73.41;99545.84;4291072;33;34464;-91
2023/06/04 04:15:40;;;;;;;;;;;;;;;12.97;76.07;99547.62;4291239;33;33928;-90
2023/06/04 04:18:10;;;;;;;;;;;;;;;13.26;74.33;99546.22;4277998;33;33939;-91
2023/06/04 04:20:39;;;;;;;;;;;;;;;13.33;76.57;99545.25;4291140;33;35748;-89
2023/06/04 04:23:08;;;;;;;;;;;;;;;13.70;75.50;99543.69;4291200;33;34742;-91
2023/06/04 04:25:37;;;;;;;;;;;;;;;14.07;76.36;99553.41;4278196;33;33349;-91
2023/06/04 04:28:08;;;;;;;;;;;;;;;14.56;73.87;99547.91;4291166;33;34758;-90
2023/06/04 04:30:37;;;;;;;;;;;;;;;15.13;64.00;99553.53;4290876;33;36096;-91
2023/06/04 04:33:06;;;;;;;;;;;;;;;15.24;66.92;99554.09;4291161;33;34999;-91
2023/06/04 04:35:34;;;;;;;;;;;;;;;15.92;67.90;99553.13;4277968;33;33386;-90
2023/06/04 04:38:03;;;;;;;;;;;;;;;16.45;66.18;99570.78;4291133;33;33837;-91
2023/06/04 04:40:31;;;;;;;;;;;;;;;16.48;63.76;99562.81;4291018;33;34892;-90
2023/06/04 04:43:00;;;;;;;;;;;;;;;16.70;61.83;99559.50;4289942;33;35459;-91
2023/06/04 04:45:28;;;;;;;;;;;;;;;16.71;59.46;99560.34;4277701;33;33228;-90
2023/06/04 04:47:56;;;;;;;;;;;;;;;16.49;63.56;99569.78;4278375;33;34145;-90
2023/06/04 04:50:24;;;;;;;;;;;;;;;16.52;61.93;99571.47;4277850;33;35972;-90
2023/06/04 04:52:53;;;;;;;;;;;;;;;16.89;60.77;99574.69;4274169;33;35312;-89
2023/06/04 04:55:21;;;;;;;;;;;;;;;17.05;52.38;99570.66;4277275;33;33273;-90
2023/06/04 04:57:50;;;;;;;;;;;;;;;16.76;56.74;99569.81;4276616;33;33048;-88
2023/06/04 05:00:19;;;;;;;;;;;;;;;16.77;51.73;99565.44;4276773;33;34898;-88
2023/06/04 05:02:47;;;;;;;;;;;;;;;17.09;52.63;99567.00;4290165;33;34564;-90
2023/06/04 05:05:15;;;;;;;;;;;;;;;17.13;50.96;99565.13;4265174;33;31849;-90
2023/06/04 05:07:44;;;;;;;;;;;;;;;17.16;48.62;99571.16;4277367;33;34552;-87
2023/06/04 05:10:12;;;;;;;;;;;;;;;16.78;54.19;99568.00;4277108;33;35180;-89
2023/06/04 05:12:50;;;;;;;;;;;;;;;17.05;50.99;99566.25;4290130;33;34628;-90
2023/06/04 05:15:19;;;;;;;;;;;;;;;17.06;48.35;99575.00;4277205;33;34083;-90
2023/06/04 05:17:47;;;;;;;;;;;;;;;16.96;53.16;99579.72;4290175;33;34184;-91
2023/06/04 05:20:15;;;;;;;;;;;;;;;16.93;51.43;99578.97;4289974;33;34860;-90
2023/06/04 05:22:45;;;;;;;;;;;;;;;16.70;52.96;99585.78;4289914;33;34345;-90
2023/06/04 05:25:13;;;;;;;;;;;;;;;16.95;48.72;99590.28;4290340;33;32919;-89
2023/06/04 05:27:41;;;;;;;;;;;;;;;16.84;49.03;99590.66;4276896;33;33689;-89
2023/06/04 05:30:10;;;;;;;;;;;;;;;17.22;46.78;99585.88;4290115;33;35240;-91
2023/06/04 05:32:40;;;;;;;;;;;;;;;17.21;47.02;99587.66;4265412;33;34461;-89
2023/06/04 05:35:09;;;;;;;;;;;;;;;17.29;46.96;99583.91;4278160;33;32603;-91
2023/06/04 05:37:40;;;;;;;;;;;;;;;17.32;48.82;99594.31;4282678;33;34130;-89
2023/06/04 05:40:09;;;;;;;;;;;;;;;17.48;46.17;99594.66;4259358;33;35824;-89
2023/06/04 05:42:38;;;;;;;;;;;;;;;17.46;48.03;99588.59;4258296;33;32949;-89
2023/06/04 05:45:08;;;;;;;;;;;;;;;17.25;48.30;99598.94;4268072;33;32857;-90
2023/06/04 05:47:36;;;;;;;;;;;;;;;17.99;44.77;99586.66;4280784;33;34935;-89
2023/06/04 05:50:05;;;;;;;;;;;;;;;17.79;46.54;99591.78;4282347;33;35044;-90
2023/06/04 05:52:35;;;;;;;;;;;;;;;18.08;46.51;99587.25;4277452;33;34455;-89
2023/06/04 05:55:03;;;;;;;;;;;;;;;18.41;45.01;99592.16;4260053;33;33495;-89
2023/06/04 05:57:31;;;;;;;;;;;;;;;18.43;42.37;99585.03;4276637;33;35116;-89
2023/06/04 05:59:59;;;;;;;;;;;;;;;18.26;43.33;99580.41;4280594;33;35012;-88
2023/06/04 06:02:27;;;;;;;;;;;;;;;17.99;44.54;99586.66;4281517;33;35426;-88
2023/06/04 06:04:56;;;;;;;;;;;;;;;17.85;49.34;99583.66;4255714;33;32975;-89
2023/06/04 06:07:24;;;;;;;;;;;;;;;18.12;45.33;99584.41;4257237;33;33397;-90
2023/06/04 06:09:52;;;;;;;;;;;;;;;18.25;48.69;99598.00;4278720;33;35210;-90
2023/06/04 06:12:20;;;;;;;;;;;;;;;18.17;46.16;99603.56;4278339;33;34739;-90
2023/06/04 06:14:48;;;;;;;;;;;;;;;18.89;46.69;99610.47;4278876;33;33094;-89
2023/06/04 06:17:16;;;;;;;;;;;;;;;19.84;43.47;99605.56;4266528;33;34235;-89
2023/06/04 06:19:44;;;;;;;;;;;;;;;20.05;41.13;99613.47;4259674;33;34355;-89
2023/06/04 06:22:12;;;;;;;;;;;;;;;20.34;39.98;99606.84;4271089;33;32980;-89
2023/06/04 06:24:41;;;;;;;;;;;;;;;20.38;41.85;99612.84;4266640;33;31922;-88
2023/06/04 06:27:10;;;;;;;;;;;;;;;20.51;40.70;99610.50;4265326;33;33887;-91
2023/06/04 06:29:39;;;;;;;;;;;;;;;20.33;39.58;99604.25;4287050;33;36095;-91
2023/06/04 06:32:07;;;;;;;;;;;;;;;20.23;40.12;99614.41;4281969;33;35204;-90
2023/06/04 06:34:35;;;;;;;;;;;;;;;19.26;43.87;99613.37;4284611;33;33137;-91
2023/06/04 06:37:03;;;;;;;;;;;;;;;18.98;44.97;99611.87;4268848;33;32932;-89
2023/06/04 06:39:32;;;;;;;;;;;;;;;19.69;46.20;99622.06;4285588;33;34375;-89
2023/06/04 06:42:00;;;;;;;;;;;;;;;19.31;43.07;99622.81;4261959;33;33170;-89
2023/06/04 06:44:29;;;;;;;;;;;;;;;19.68;42.35;99620.37;4272953;33;34166;-89
2023/06/04 06:46:56;;;;;;;;;;;;;;;20.44;39.35;99620.50;4276221;33;34054;-89
2023/06/04 06:49:24;;;;;;;;;;;;;;;19.92;43.16;99628.16;4288785;33;35158;-88
2023/06/04 06:51:52;;;;;;;;;;;;;;;19.97;41.60;99637.59;4289246;33;35406;-89
2023/06/04 06:54:21;;;;;;;;;;;;;;;20.59;41.33;99635.63;4285083;33;33348;-89
2023/06/04 06:56:50;;;;;;;;;;;;;;;20.18;45.53;99641.06;4272727;33;35678;-89
2023/06/04 06:59:18;;;;;;;;;;;;;;;20.28;40.88;99641.50;4282655;33;35163;-89
2023/06/04 07:01:47;;;;;;;;;;;;;;;20.81;39.43;99645.25;4287745;33;35020;-91
2023/06/04 07:04:15;;;;;;;;;;;;;;;20.75;37.89;99642.87;4287232;33;34115;-90
2023/06/04 07:06:43;;;;;;;;;;;;;;;21.71;37.61;99647.84;4287678;33;34110;-89
2023/06/04 07:09:11;;;;;;;;;;;;;;;21.45;38.80;99645.63;4262783;33;33465;-88
2023/06/04 07:11:39;;;;;;;;;;;;;;;21.76;39.65;99643.16;4287432;33;35460;-90
2023/06/04 07:14:07;;;;;;;;;;;;;;;22.48;35.84;99632.28;4285680;33;33218;-91
2023/06/04 07:16:34;;;;;;;;;;;;;;;21.29;36.79;99640.25;4287625;33;34092;-89
2023/06/04 07:19:02;;;;;;;;;;;;;;;22.41;37.44;99642.37;4273360;33;34284;-89
2023/06/04 07:21:30;;;;;;;;;;;;;;;22.26;33.25;99645.84;4287405;33;35037;-90
2023/06/04 07:23:58;;;;;;;;;;;;;;;22.62;34.52;99650.09;4272136;33;34074;-88
2023/06/04 07:26:30;;;;;;;;;;;;;;;22.31;38.54;99635.87;4283104;33;34118;-89
2023/06/04 07:29:01;;;;;;;;;;;;;;;23.22;34.90;99646.72;4269263;33;36082;-88
2023/06/04 07:31:29;;;;;;;;;;;;;;;23.62;34.65;99645.22;4284019;33;35154;-89
2023/06/04 07:33:57;;;;;;;;;;;;;;;23.72;33.38;99647.31;4282779;33;33423;-90
2023/06/04 07:36:25;;;;;;;;;;;;;;;23.41;34.11;99639.38;4261086;33;33616;-90
2023/06/04 07:38:53;;;;;;;;;;;;;;;23.14;35.27;99639.22;4284601;33;35309;-89
2023/06/04 07:41:21;;;;;;;;;;;;;;;23.24;33.76;99644.81;4274532;33;34625;-89
2023/06/04 07:43:49;;;;;;;;;;;;;;;22.86;38.96;99646.06;4271767;33;33293;-90
2023/06/04 07:46:19;;;;;;;;;;;;;;;24.00;32.32;99654.50;4285616;33;34219;-91
2023/06/04 07:48:48;;;;;;;;;;;;;;;24.34;33.78;99644.44;4284790;33;36192;-91
2023/06/04 07:51:18;;;;;;;;;;;;;;;22.62;36.77;99647.44;4273186;33;34760;-90
2023/06/04 07:53:46;;;;;;;;;;;;;;;23.15;33.80;99643.56;4285890;33;34004;-91
2023/06/04 07:56:13;;;;;;;;;;;;;;;22.89;35.93;99655.69;4253713;33;1005180;-91
2023/06/04 07:58:43;;;;;;;;;;;;;;;23.20;35.79;99652.13;4268447;33;35701;-91
2023/06/04 08:01:11;;;;;;;;;;;;;;;23.91;31.53;99649.75;4284635;33;32413;-90
2023/06/04 08:03:40;;;;;;;;;;;;;;;23.99;30.28;99651.00;4282781;33;33270;-91
2023/06/04 08:06:08;;;;;;;;;;;;;;;23.84;30.88;99657.25;4284740;33;34327;-91
2023/06/04 08:08:36;;;;;;;;;;;;;;;23.55;32.18;99657.19;4256992;33;34603;-91
2023/06/04 08:11:04;;;;;;;;;;;;;;;23.56;31.98;99658.91;4282239;33;35348;-90
2023/06/04 08:13:32;;;;;;;;;;;;;;;23.53;32.31;99659.06;4283468;33;32460;-91
2023/06/04 08:16:00;;;;;;;;;;;;;;;23.90;30.23;99664.88;4268821;33;37248;-90
2023/06/04 08:18:48;;;;;;;;;;;;;;;22.49;33.75;99658.75;4284924;33;35531;-90
2023/06/04 08:21:26;;;;;;;;;;;;;;;23.67;33.50;99659.09;4271604;33;35407;-89
2023/06/04 08:24:03;;;;;;;;;;;;;;;23.82;34.47;99659.16;4274700;33;33673;-91
2023/06/04 08:26:50;;;;;;;;;;;;;;;23.70;34.64;99660.75;4289082;33;33901;-89
2023/06/04 08:29:27;;;;;;;;;;;;;;;23.50;35.17;99658.41;4279452;33;36294;-91
2023/06/04 08:31:56;;;;;;;;;;;;;;;22.62;34.29;99666.03;4277831;33;34607;-94
2023/06/04 08:34:28;;;;;;;;;;;;;;;22.29;37.75;99670.44;4279694;33;33150;-91
2023/06/04 08:36:56;;;;;;;;;;;;;;;22.28;36.17;99673.19;4278671;33;32244;-92
2023/06/04 08:39:25;;;;;;;;;;;;;;;22.50;35.86;99668.44;4277653;33;36065;-89
2023/06/04 08:41:55;;;;;;;;;;;;;;;21.93;38.09;99668.75;4290089;33;34311;-90
2023/06/04 08:44:22;;;;;;;;;;;;;;;21.57;39.35;99668.88;4277174;33;33273;-89
2023/06/04 08:46:52;;;;;;;;;;;;;;;21.71;37.05;99668.19;4277319;33;34876;-89
2023/06/04 08:49:21;;;;;;;;;;;;;;;21.27;39.13;99666.81;4277004;33;35205;-90
2023/06/04 08:51:50;;;;;;;;;;;;;;;21.13;42.58;99667.50;4277353;33;34740;-94
2023/06/04 08:54:20;;;;;;;;;;;;;;;21.64;39.07;99666.78;4267612;33;32786;-90
2023/06/04 08:56:48;;;;;;;;;;;;;;;21.64;38.63;99667.63;4292156;33;33774;-92
2023/06/04 08:59:16;;;;;;;;;;;;;;;21.43;40.27;99668.72;4278987;33;35429;-93
2023/06/04 09:01:44;;;;;;;;;;;;;;;21.31;41.46;99670.16;4292525;33;34802;-95
2023/06/04 09:04:12;;;;;;;;;;;;;;;21.32;42.15;99659.50;4278197;33;33279;-91
2023/06/04 09:06:43;;;;;;;;;;;;;;;21.42;41.82;99665.19;4277765;33;34617;-96
2023/06/04 09:09:12;;;;;;;;;;;;;;;21.29;42.19;99667.59;4278386;33;35244;-90
2023/06/04 09:11:59;;;;;;;;;;;;;;;21.40;42.44;99673.19;4291790;33;34636;-92
2023/06/04 09:14:27;;;;;;;;;;;;;;;21.44;42.07;99665.94;4293949;33;33391;-96
2023/06/04 09:16:55;;;;;;;;;;;;;;;21.74;40.85;99666.25;4294595;33;35002;-93
2023/06/04 09:19:23;;;;;;;;;;;;;;;21.42;41.19;99659.88;4277131;33;36095;-95
2023/06/04 09:21:52;;;;;;;;;;;;;;;21.37;42.08;99669.84;4290495;33;34703;-93
2023/06/04 09:24:21;;;;;;;;;;;;;;;21.62;40.19;99669.53;4290071;33;33372;-94
2023/06/04 09:26:49;;;;;;;;;;;;;;;21.29;41.87;99664.94;4275478;33;34870;-93
2023/06/04 09:29:17;;;;;;;;;;;;;;;20.97;44.93;99672.69;4289722;33;35291;-91
2023/06/04 09:31:46;;;;;;;;;;;;;;;20.85;44.08;99667.97;4289770;33;34695;-94
2023/06/04 09:34:14;;;;;;;;;;;;;;;20.71;44.58;99663.34;4290130;33;32978;-93
2023/06/04 09:36:44;;;;;;;;;;;;;;;20.63;44.70;99662.84;4289726;33;34946;-96
2023/06/04 09:39:15;;;;;;;;;;;;;;;21.36;44.65;99668.16;4289848;33;35285;-93
2023/06/04 09:41:43;;;;;;;;;;;;;;;21.49;45.83;99669.25;4289775;33;34769;-90
2023/06/04 09:44:12;;;;;;;;;;;;;;;21.08;46.80;99669.50;4290139;33;33215;-93
2023/06/04 09:46:39;;;;;;;;;;;;;;;20.99;46.98;99670.81;4278136;33;34870;-91
2023/06/04 09:49:08;;;;;;;;;;;;;;;21.19;46.94;99676.91;4279783;33;35304;-93
2023/06/04 09:51:36;;;;;;;;;;;;;;;20.96;46.45;99670.94;4292014;33;34298;-93
2023/06/04 09:54:04;;;;;;;;;;;;;;;21.49;46.78;99677.22;4278951;33;32905;-94
2023/06/04 09:56:39;;;;;;;;;;;;;;;20.99;45.75;99678.75;4291639;33;34439;-91
2023/06/04 09:59:08;;;;;;;;;;;;;;;20.46;47.15;99676.81;4292170;33;35625;-94
2023/06/04 10:01:43;;;;;;;;;;;;;;;20.78;46.91;99672.69;4290668;33;35411;-91
2023/06/04 10:04:12;;;;;;;;;;;;;;;20.89;46.74;99680.13;4291875;33;33543;-91
2023/06/04 10:06:40;;;;;;;;;;;;;;;20.44;46.01;99683.97;4279301;33;33902;-92
2023/06/04 10:09:09;;;;;;;;;;;;;;;20.13;49.80;99680.06;4291941;33;36159;-96
2023/06/04 10:11:44;;;;;;;;;;;;;;;20.37;47.51;99682.56;4291545;33;34397;-91
2023/06/04 10:14:14;;;;;;;;;;;;;;;20.21;48.38;99685.03;4279255;33;33293;-95
2023/06/04 10:16:43;;;;;;;;;;;;;;;20.53;44.95;99677.41;4291688;33;34326;-91
2023/06/04 10:19:10;;;;;;;;;;;;;;;21.34;42.43;99680.63;4291750;33;35097;-91
2023/06/04 10:21:38;;;;;;;;;;;;;;;21.05;44.70;99680.25;4291624;33;35277;-93
2023/06/04 10:24:07;;;;;;;;;;;;;;;20.92;42.93;99671.19;4292070;33;33397;-96
2023/06/04 10:26:35;;;;;;;;;;;;;;;20.85;44.56;99672.41;4279135;33;34325;-92
2023/06/04 10:29:03;;;;;;;;;;;;;;;21.18;44.46;99669.94;4291621;33;35306;-93
2023/06/04 10:31:31;;;;;;;;;;;;;;;20.92;44.30;99674.69;4292040;33;35170;-91
2023/06/04 10:33:59;;;;;;;;;;;;;;;21.11;45.98;99677.31;4278922;33;32883;-93
2023/06/04 10:36:28;;;;;;;;;;;;;;;20.82;44.19;99682.22;4279212;33;33917;-90
2023/06/04 10:38:56;;;;;;;;;;;;;;;21.00;43.47;99671.66;4287070;33;35208;-92
2023/06/04 10:41:25;;;;;;;;;;;;;;;21.00;41.53;99679.59;4264362;33;33697;-93
2023/06/04 10:44:00;;;;;;;;;;;;;;;20.89;40.31;99680.13;4278524;33;34271;-96
2023/06/04 10:46:40;;;;;;;;;;;;;;;21.77;39.35;99678.47;4263892;33;33232;-90
2023/06/04 10:49:09;;;;;;;;;;;;;;;21.81;36.26;99671.22;4289650;33;35925;-91
2023/06/04 10:51:37;;;;;;;;;;;;;;;21.27;39.94;99680.06;4277527;33;33342;-94
2023/06/04 10:54:05;;;;;;;;;;;;;;;21.15;41.98;99675.38;4265690;33;33052;-93
2023/06/04 10:56:34;;;;;;;;;;;;;;;20.98;39.38;99671.75;4280668;33;34659;-91
2023/06/04 10:59:13;;;;;;;;;;;;;;;21.49;40.21;99679.00;4289668;33;34998;-91
2023/06/04 11:01:40;;;;;;;;;;;;;;;21.62;41.25;99674.81;4276731;33;34950;-91
2023/06/04 11:04:22;;;;;;;;;;;;;;;21.17;42.43;99674.34;4288526;33;33239;-94
2023/06/04 11:07:08;;;;;;;;;;;;;;;21.38;42.04;99677.72;4303562;33;33803;-91
2023/06/04 11:09:38;;;;;;;;;;;;;;;21.11;42.83;99676.47;4280363;33;36362;-93
2023/06/04 11:12:06;;;;;;;;;;;;;;;21.26;44.42;99678.31;4290232;33;34956;-90
2023/06/04 11:14:34;;;;;;;;;;;;;;;21.10;41.85;99674.72;4279086;33;32093;-90
2023/06/04 11:17:09;;;;;;;;;;;;;;;21.29;45.50;99680.84;4274104;33;33836;-91
2023/06/04 11:19:37;;;;;;;;;;;;;;;21.35;44.65;99675.25;4286115;33;36265;-90
2023/06/04 11:22:05;;;;;;;;;;;;;;;21.25;47.17;99675.75;4286724;33;34573;-90
2023/06/04 11:24:33;;;;;;;;;;;;;;;21.61;45.31;99678.38;4278350;33;33351;-90
2023/06/04 11:27:01;;;;;;;;;;;;;;;21.49;48.79;99673.72;4291490;33;33627;-90
2023/06/04 11:29:44;;;;;;;;;;;;;;;20.92;50.40;99673.84;4280922;33;35342;-92
2023/06/04 11:32:20;;;;;;;;;;;;;;;20.83;52.44;99669.84;4266889;33;33767;-91
2023/06/04 11:34:48;;;;;;;;;;;;;;;21.15;49.78;99668.28;4267206;33;33129;-90
2023/06/04 11:37:16;;;;;;;;;;;;;;;20.97;50.73;99661.25;4278811;33;34239;-93
2023/06/04 11:39:44;;;;;;;;;;;;;;;20.65;51.97;99671.56;4278890;33;36154;-89
2023/06/04 11:42:13;;;;;;;;;;;;;;;20.58;50.32;99676.25;4291421;33;33848;-90
2023/06/04 11:44:45;;;;;;;;;;;;;;;20.70;48.96;99666.06;4289702;33;33096;-90
2023/06/04 11:47:13;;;;;;;;;;;;;;;20.57;51.34;99668.38;4288768;33;33756;-93
2023/06/04 11:49:42;;;;;;;;;;;;;;;20.91;48.72;99675.63;4275973;33;34997;-93
2023/06/04 11:52:11;;;;;;;;;;;;;;;20.78;50.62;99669.19;4288677;33;34862;-92
2023/06/04 11:54:40;;;;;;;;;;;;;;;20.97;50.12;99677.12;4275832;33;33363;-94
2023/06/04 11:57:07;;;;;;;;;;;;;;;20.88;50.04;99677.53;4266738;33;34222;-92
2023/06/04 11:59:35;;;;;;;;;;;;;;;21.39;50.47;99678.59;4263701;33;36127;-93
2023/06/04 12:02:03;;;;;;;;;;;;;;;21.09;51.31;99678.28;4263197;33;34310;-90
2023/06/04 12:04:32;;;;;;;;;;;;;;;20.95;50.96;99674.53;4274573;33;33706;-91
2023/06/04 12:07:01;;;;;;;;;;;;;;;20.97;50.82;99675.31;4262230;33;34242;-90
2023/06/04 12:09:31;;;;;;;;;;;;;;;21.18;48.40;99670.78;4262282;33;35084;-93
2023/06/04 12:11:59;;;;;;;;;;;;;;;21.21;51.43;99675.03;4258923;33;34687;-94
2023/06/04 12:14:28;;;;;;;;;;;;;;;21.46;48.57;99668.56;4261374;33;33307;-90
2023/06/04 12:16:57;;;;;;;;;;;;;;;21.60;49.00;99676.69;4260460;33;31812;-91
2023/06/04 12:19:26;;;;;;;;;;;;;;;21.46;48.11;99676.50;4260867;33;35057;-90
2023/06/04 12:22:01;;;;;;;;;;;;;;;21.18;52.49;99672.56;4275153;33;35006;-92
2023/06/04 12:24:30;;;;;;;;;;;;;;;21.64;50.41;99672.94;4275117;33;33269;-92
2023/06/04 12:27:05;;;;;;;;;;;;;;;21.41;52.71;99674.06;4263414;33;34016;-93
2023/06/04 12:29:33;;;;;;;;;;;;;;;21.42;48.53;99669.62;4262349;33;35546;-93
2023/06/04 12:32:07;;;;;;;;;;;;;;;21.55;47.51;99671.63;4273601;33;35215;-90
2023/06/04 12:34:42;;;;;;;;;;;;;;;21.59;50.26;99674.97;4276027;33;33996;-95
2023/06/04 12:37:10;;;;;;;;;;;;;;;21.57;50.85;99674.19;4270596;33;34195;-92
2023/06/04 12:39:38;;;;;;;;;;;;;;;21.81;51.13;99671.22;4261636;33;34526;-93
2023/06/04 12:42:08;;;;;;;;;;;;;;;21.59;51.45;99669.66;4260213;33;33682;-90
2023/06/04 12:44:36;;;;;;;;;;;;;;;22.14;52.65;99664.13;4263767;33;33797;-89
2023/06/04 12:47:04;;;;;;;;;;;;;;;21.98;51.13;99663.22;4262510;33;33841;-89
2023/06/04 12:49:32;;;;;;;;;;;;;;;22.20;51.19;99664.72;4262682;33;35172;-90
2023/06/04 12:52:00;;;;;;;;;;;;;;;22.51;46.77;99659.50;4270418;33;35395;-90
2023/06/04 12:54:28;;;;;;;;;;;;;;;21.88;46.68;99654.03;4278088;33;33069;-89
2023/06/04 12:56:57;;;;;;;;;;;;;;;21.94;49.19;99657.22;4270092;33;34832;-93